createdAt,value
2019-05-22T00:00:01.220Z,21.47
2019-05-22T00:02:40.147Z,20.73
2019-05-22T00:05:15.546Z,20.87
2019-05-22T00:07:47.197Z,21.30
2019-05-22T00:10:19.825Z,21.50
2019-05-22T00:12:50.151Z,21.87
2019-05-22T00:15:21.534Z,22.63
2019-05-22T00:17:53.856Z,22.17
2019-05-22T00:20:25.050Z,21.70
2019-05-22T00:22:55.095Z,22.63
2019-05-22T00:25:33.181Z,23.83
2019-05-22T00:28:02.204Z,23.07
2019-05-22T00:30:36.102Z,23.30
2019-05-22T00:33:07.985Z,24.40
2019-05-22T00:35:38.638Z,23.93
2019-05-22T00:38:09.845Z,24.50
2019-05-22T00:40:45.553Z,23.80
2019-05-22T00:43:17.364Z,24.60
2019-05-22T00:45:50.946Z,24.13
2019-05-22T00:48:25.080Z,25.27
2019-05-22T00:51:16.939Z,24.83
2019-05-22T00:53:58.732Z,23.90
2019-05-22T00:56:39.016Z,25.87
2019-05-22T00:59:17.426Z,25.47
2019-05-22T01:01:50.743Z,25.13
2019-05-22T01:04:23.711Z,25.63
2019-05-22T01:06:55.253Z,26.47
2019-05-22T01:09:31.997Z,26.43
2019-05-22T01:12:03.273Z,26.27
2019-05-22T01:14:44.807Z,26.17
2019-05-22T01:17:15.963Z,27.67
2019-05-22T01:19:47.474Z,27.67
2019-05-22T01:22:17.907Z,26.47
2019-05-22T01:24:51.098Z,27.07
2019-05-22T01:27:22.850Z,28.17
2019-05-22T01:29:53.949Z,27.33
2019-05-22T01:32:29.451Z,27.03
2019-05-22T01:34:59.510Z,27.73
2019-05-22T01:37:31.142Z,28.07
2019-05-22T01:40:12.426Z,28.73
2019-05-22T01:42:45.279Z,28.80
2019-05-22T01:45:18.525Z,28.93
2019-05-22T01:47:54.402Z,28.57
2019-05-22T01:50:51.183Z,29.07
2019-05-22T01:53:24.218Z,28.90
2019-05-22T01:56:00.876Z,29.77
2019-05-22T01:58:31.956Z,28.33
2019-05-22T02:01:03.591Z,29.03
2019-05-22T02:03:36.735Z,28.37
2019-05-22T02:06:07.495Z,29.13
2019-05-22T02:08:44.233Z,29.43
2019-05-22T02:11:18.803Z,28.37
2019-05-22T02:13:59.444Z,30.03
2019-05-22T02:16:32.061Z,30.20
2019-05-22T02:19:05.388Z,29.87
2019-05-22T02:21:35.851Z,29.07
2019-05-22T02:24:06.671Z,30.20
2019-05-22T02:26:37.611Z,29.43
2019-05-22T02:29:09.061Z,28.50
2019-05-22T02:31:40.782Z,28.43
2019-05-22T02:34:10.762Z,29.13
2019-05-22T02:36:41.941Z,28.33
2019-05-22T02:39:24.014Z,27.97
2019-05-22T02:41:58.113Z,28.93
2019-05-22T02:44:29.948Z,28.67
2019-05-22T02:47:16.681Z,29.30
2019-05-22T02:49:32.971Z,28.27
2019-05-22T02:52:03.692Z,28.47
2019-05-22T02:54:34.423Z,28.67
2019-05-22T02:57:04.805Z,27.37
2019-05-22T02:59:35.012Z,27.07
2019-05-22T03:02:06.932Z,28.07
2019-05-22T03:05:11.272Z,28.13
2019-05-22T03:07:42.100Z,27.57
2019-05-22T03:10:18.894Z,28.50
2019-05-22T03:12:52.278Z,27.70
2019-05-22T03:15:26.115Z,28.50
2019-05-22T03:18:08.546Z,27.37
2019-05-22T03:20:40.412Z,27.73
2019-05-22T03:23:35.763Z,26.80
2019-05-22T03:26:08.440Z,27.87
2019-05-22T03:28:38.842Z,25.40
2019-05-22T03:31:10.350Z,26.37
2019-05-22T03:33:41.320Z,26.20
2019-05-22T03:36:18.329Z,25.87
2019-05-22T03:38:48.923Z,24.43
2019-05-22T03:41:19.324Z,25.17
2019-05-22T03:43:50.999Z,24.37
2019-05-22T03:46:39.185Z,25.00
2019-05-22T03:49:28.375Z,23.03
2019-05-22T03:51:45.682Z,23.43
2019-05-22T03:54:16.396Z,22.13
2019-05-22T03:56:47.986Z,22.43
2019-05-22T03:59:17.499Z,22.10
2019-05-22T04:01:47.173Z,21.70
2019-05-22T04:04:34.330Z,21.20
2019-05-22T04:07:03.831Z,20.57
2019-05-22T04:09:33.441Z,20.83
2019-05-22T04:12:03.554Z,20.20
2019-05-22T04:14:38.025Z,21.23
2019-05-22T04:17:10.100Z,19.07
2019-05-22T04:19:49.387Z,19.27
2019-05-22T04:22:13.445Z,18.50
2019-05-22T04:24:44.379Z,18.00
2019-05-22T04:27:14.309Z,18.43
2019-05-22T04:29:44.632Z,18.37
2019-05-22T04:32:17.934Z,17.87
2019-05-22T04:34:48.623Z,18.00
2019-05-22T04:37:20.114Z,17.70
2019-05-22T04:39:52.806Z,18.50
2019-05-22T04:42:27.400Z,18.57
2019-05-22T04:45:12.329Z,17.37
2019-05-22T04:47:46.427Z,17.20
2019-05-22T04:50:17.256Z,16.33
2019-05-22T04:52:48.553Z,15.87
2019-05-22T04:55:19.094Z,13.93
2019-05-22T04:57:49.898Z,13.90
2019-05-22T05:00:22.269Z,13.27
2019-05-22T05:02:51.955Z,11.93
2019-05-22T05:05:25.193Z,11.33
2019-05-22T05:07:56.544Z,12.20
2019-05-22T05:10:26.613Z,10.33
2019-05-22T05:12:59.394Z,12.17
2019-05-22T05:15:29.156Z,11.60
2019-05-22T05:17:59.274Z,10.60
2019-05-22T05:20:32.294Z,11.40
2019-05-22T05:23:02.614Z,10.40
2019-05-22T05:25:33.805Z,11.30
2019-05-22T05:28:05.339Z,10.70
2019-05-22T05:30:35.103Z,10.70
2019-05-22T05:33:05.493Z,10.93
2019-05-22T05:35:36.463Z,11.47
2019-05-22T05:38:06.637Z,10.70
2019-05-22T05:40:42.641Z,10.30
2019-05-22T05:43:14.577Z,11.17
2019-05-22T05:45:46.787Z,10.70
2019-05-22T05:48:21.522Z,11.33
2019-05-22T05:51:34.465Z,11.53
2019-05-22T05:54:10.876Z,10.27
2019-05-22T05:56:42.386Z,10.60
2019-05-22T05:59:14.220Z,10.80
2019-05-22T06:01:47.479Z,10.90
2019-05-22T06:04:34.866Z,10.87
2019-05-22T06:07:19.316Z,12.10
2019-05-22T06:09:55.277Z,10.23
2019-05-22T06:12:25.393Z,10.17
2019-05-22T06:14:55.221Z,10.60
2019-05-22T06:18:04.537Z,11.20
2019-05-22T06:20:34.888Z,10.90
2019-05-22T06:23:46.584Z,11.80
2019-05-22T06:26:28.512Z,10.60
2019-05-22T06:28:59.116Z,10.10
2019-05-22T06:31:40.438Z,10.07
2019-05-22T06:34:10.919Z,9.73
2019-05-22T06:36:42.945Z,9.63
2019-05-22T06:39:15.748Z,10.13
2019-05-22T06:41:46.820Z,9.83
2019-05-22T06:44:41.000Z,9.10
2019-05-22T06:47:15.398Z,9.60
2019-05-22T06:49:59.183Z,9.20
2019-05-22T06:52:29.213Z,9.03
2019-05-22T06:54:59.192Z,9.43
2019-05-22T06:57:33.747Z,8.93
2019-05-22T07:00:23.264Z,18.83
2019-05-22T07:02:53.145Z,8.80
2019-05-22T07:05:23.027Z,8.43
2019-05-22T07:07:52.703Z,8.27
2019-05-22T07:10:22.704Z,7.50
2019-05-22T07:12:52.848Z,7.63
2019-05-22T07:15:29.137Z,7.20
2019-05-22T07:17:59.464Z,7.63
2019-05-22T07:20:32.757Z,7.00
2019-05-22T07:23:06.164Z,7.00
2019-05-22T07:25:36.681Z,6.60
2019-05-22T07:28:08.106Z,8.17
2019-05-22T07:30:38.631Z,7.60
2019-05-22T07:33:08.354Z,8.13
2019-05-22T07:35:50.324Z,6.97
2019-05-22T07:38:09.827Z,7.70
2019-05-22T07:40:40.578Z,7.87
2019-05-22T07:43:10.732Z,8.00
2019-05-22T07:45:40.897Z,8.47
2019-05-22T07:48:11.185Z,8.67
2019-05-22T07:50:48.524Z,8.50
2019-05-22T07:53:17.350Z,9.17
2019-05-22T07:55:47.468Z,8.80
2019-05-22T07:58:19.138Z,9.07
2019-05-22T08:01:01.899Z,9.10
2019-05-22T08:03:33.121Z,10.27
2019-05-22T08:06:03.043Z,9.37
2019-05-22T08:08:36.075Z,9.13
2019-05-22T08:11:06.750Z,9.93
2019-05-22T08:13:37.795Z,9.80
2019-05-22T08:16:08.576Z,9.63
2019-05-22T08:18:39.788Z,9.73
2019-05-22T08:21:10.861Z,9.97
2019-05-22T08:23:40.729Z,10.10
2019-05-22T08:26:11.644Z,9.80
2019-05-22T08:28:41.854Z,9.63
2019-05-22T08:31:13.285Z,9.33
2019-05-22T08:33:43.310Z,9.67
2019-05-22T08:36:12.960Z,9.57
2019-05-22T08:38:44.929Z,10.13
2019-05-22T08:41:16.318Z,10.37
2019-05-22T08:44:13.811Z,10.83
2019-05-22T08:46:18.995Z,11.10
2019-05-22T08:48:49.419Z,12.07
2019-05-22T08:51:19.659Z,11.63
2019-05-22T08:53:49.832Z,11.47
2019-05-22T08:56:20.215Z,13.40
2019-05-22T08:58:51.449Z,13.63
2019-05-22T09:01:22.575Z,13.50
2019-05-22T09:03:52.924Z,14.33
2019-05-22T09:06:22.680Z,14.37
2019-05-22T09:08:52.263Z,14.67
2019-05-22T09:11:21.956Z,15.20
2019-05-22T09:13:51.593Z,15.13
2019-05-22T09:16:21.620Z,14.90
2019-05-22T09:18:52.475Z,14.93
2019-05-22T09:21:22.666Z,12.63
2019-05-22T09:23:52.204Z,11.87
2019-05-22T09:26:22.865Z,10.63
2019-05-22T09:28:52.825Z,10.00
2019-05-22T09:31:22.973Z,9.20
2019-05-22T09:33:53.613Z,7.33
2019-05-22T09:36:23.479Z,8.07
2019-05-22T09:38:53.553Z,7.50
2019-05-22T09:41:23.337Z,8.57
2019-05-22T09:43:52.942Z,8.70
2019-05-22T09:46:24.302Z,7.33
2019-05-22T09:48:53.867Z,7.70
2019-05-22T09:51:24.038Z,8.90
2019-05-22T09:53:53.888Z,9.50
2019-05-22T09:56:24.223Z,8.97
2019-05-22T09:58:53.889Z,9.40
2019-05-22T10:01:23.740Z,11.83
2019-05-22T10:03:53.483Z,9.03
2019-05-22T10:06:23.097Z,9.50
2019-05-22T10:08:52.832Z,8.57
2019-05-22T10:11:22.879Z,8.53
2019-05-22T10:13:52.902Z,8.00
2019-05-22T10:16:23.095Z,7.87
2019-05-22T10:18:53.705Z,8.03
2019-05-22T10:21:24.485Z,8.40
2019-05-22T10:23:54.603Z,8.90
2019-05-22T10:26:25.009Z,10.10
2019-05-22T10:28:57.196Z,10.97
2019-05-22T10:31:27.212Z,11.93
2019-05-22T10:33:57.013Z,11.47
2019-05-22T10:36:26.509Z,12.37
2019-05-22T10:38:56.818Z,12.33
2019-05-22T10:41:26.905Z,13.40
2019-05-22T10:43:57.426Z,12.63
2019-05-22T10:46:27.137Z,11.93
2019-05-22T10:48:57.326Z,11.57
2019-05-22T10:51:27.421Z,12.53
2019-05-22T10:53:56.947Z,13.13
2019-05-22T10:56:26.972Z,30.03
2019-05-22T10:58:56.920Z,13.53
2019-05-22T11:01:27.675Z,16.73
2019-05-22T11:03:58.345Z,15.90
2019-05-22T11:06:30.452Z,17.20
2019-05-22T11:09:00.867Z,15.37
2019-05-22T11:11:30.877Z,16.93
2019-05-22T11:14:03.362Z,12.70
2019-05-22T11:16:33.861Z,13.50
2019-05-22T11:19:04.006Z,14.27
2019-05-22T11:21:34.791Z,14.90
2019-05-22T11:24:05.305Z,15.10
2019-05-22T11:26:35.025Z,14.40
2019-05-22T11:29:06.530Z,13.60
2019-05-22T11:31:36.393Z,14.60
2019-05-22T11:34:06.590Z,13.73
2019-05-22T11:36:36.871Z,12.60
2019-05-22T11:39:11.460Z,15.03
2019-05-22T11:41:41.966Z,12.27
2019-05-22T11:44:11.886Z,13.03
2019-05-22T11:46:41.658Z,12.47
2019-05-22T11:49:11.892Z,12.33
2019-05-22T11:51:41.777Z,12.93
2019-05-22T11:54:11.587Z,12.73
2019-05-22T11:56:41.608Z,13.47
2019-05-22T11:59:11.305Z,12.83
2019-05-22T12:01:41.320Z,12.40
2019-05-22T12:04:12.647Z,13.17
2019-05-22T12:06:43.955Z,13.30
2019-05-22T12:09:15.687Z,13.70
2019-05-22T12:11:45.678Z,13.00
2019-05-22T12:14:16.670Z,12.83
2019-05-22T12:16:47.875Z,12.63
2019-05-22T12:19:17.631Z,15.50
2019-05-22T12:21:47.410Z,14.37
2019-05-22T12:24:27.310Z,14.70
2019-05-22T12:26:49.215Z,12.83
2019-05-22T12:29:19.162Z,11.70
2019-05-22T12:31:49.321Z,10.70
2019-05-22T12:34:19.814Z,12.13
2019-05-22T12:36:51.495Z,11.07
2019-05-22T12:39:23.460Z,11.30
2019-05-22T12:41:54.262Z,12.13
2019-05-22T12:44:24.599Z,9.70
2019-05-22T12:46:54.768Z,9.97
2019-05-22T12:49:27.280Z,11.13
2019-05-22T12:51:57.366Z,10.53
2019-05-22T12:54:43.416Z,10.77
2019-05-22T12:56:59.043Z,11.20
2019-05-22T12:59:29.237Z,11.70
2019-05-22T13:02:01.189Z,11.10
2019-05-22T13:04:31.915Z,11.37
2019-05-22T13:07:02.727Z,11.37
2019-05-22T13:09:32.989Z,11.13
2019-05-22T13:12:04.092Z,11.27
2019-05-22T13:14:33.900Z,10.30
2019-05-22T13:17:04.003Z,8.53
2019-05-22T13:19:36.399Z,8.90
2019-05-22T13:22:09.569Z,8.13
2019-05-22T13:24:41.019Z,8.57
2019-05-22T13:27:13.942Z,25.27
2019-05-22T13:29:44.405Z,8.27
2019-05-22T13:32:16.080Z,7.10
2019-05-22T13:34:46.880Z,6.63
2019-05-22T13:37:17.754Z,7.30
2019-05-22T13:39:47.250Z,7.83
2019-05-22T13:42:17.554Z,7.93
2019-05-22T13:44:47.634Z,7.30
2019-05-22T13:47:17.104Z,7.43
2019-05-22T13:49:46.842Z,6.40
2019-05-22T13:52:16.482Z,6.40
2019-05-22T13:54:46.474Z,6.40
2019-05-22T13:57:16.417Z,5.83
2019-05-22T13:59:46.397Z,5.97
2019-05-22T14:02:16.069Z,5.30
2019-05-22T14:04:46.384Z,5.70
2019-05-22T14:07:16.399Z,5.77
2019-05-22T14:09:47.050Z,6.00
2019-05-22T14:12:18.477Z,6.53
2019-05-22T14:14:48.514Z,6.90
2019-05-22T14:17:18.290Z,7.17
2019-05-22T14:19:50.942Z,7.83
2019-05-22T14:22:25.829Z,8.63
2019-05-22T14:24:56.065Z,7.33
2019-05-22T14:27:26.363Z,7.83
2019-05-22T14:29:56.610Z,8.00
2019-05-22T14:32:29.707Z,6.87
2019-05-22T14:35:03.405Z,7.17
2019-05-22T14:37:33.942Z,7.10
2019-05-22T14:40:04.973Z,7.33
2019-05-22T14:42:35.770Z,7.60
2019-05-22T14:45:06.377Z,7.77
2019-05-22T14:47:36.370Z,6.97
2019-05-22T14:50:08.018Z,7.43
2019-05-22T14:52:38.119Z,7.10
2019-05-22T14:55:08.075Z,7.20
2019-05-22T14:57:40.656Z,6.07
2019-05-22T15:00:13.194Z,6.30
2019-05-22T15:02:42.985Z,5.83
2019-05-22T15:05:14.109Z,5.63
2019-05-22T15:07:45.095Z,4.30
2019-05-22T15:10:17.067Z,4.50
2019-05-22T15:12:47.665Z,4.97
2019-05-22T15:15:18.986Z,4.80
2019-05-22T15:17:49.570Z,5.27
2019-05-22T15:20:23.676Z,4.83
2019-05-22T15:22:56.259Z,5.90
2019-05-22T15:25:25.226Z,5.20
2019-05-22T15:27:55.327Z,4.60
2019-05-22T15:30:25.507Z,5.37
2019-05-22T15:32:55.565Z,5.47
2019-05-22T15:35:25.820Z,6.00
2019-05-22T15:37:55.870Z,6.53
2019-05-22T15:40:25.717Z,7.30
2019-05-22T15:42:55.374Z,6.87
2019-05-22T15:45:27.521Z,7.93
2019-05-22T15:48:00.867Z,7.60
2019-05-22T15:50:34.042Z,7.83
2019-05-22T15:53:11.950Z,7.87
2019-05-22T15:55:41.480Z,8.20
2019-05-22T15:58:13.909Z,9.23
2019-05-22T16:00:48.218Z,7.80
2019-05-22T16:03:22.971Z,8.77
2019-05-22T16:05:55.259Z,9.67
2019-05-22T16:08:25.450Z,9.13
2019-05-22T16:10:59.613Z,10.23
2019-05-22T16:13:30.964Z,10.30
2019-05-22T16:16:06.569Z,9.50
2019-05-22T16:18:37.512Z,9.33
2019-05-22T16:21:10.397Z,8.30
2019-05-22T16:23:42.010Z,8.40
2019-05-22T16:26:13.808Z,9.13
2019-05-22T16:28:46.154Z,8.20
2019-05-22T16:31:18.216Z,8.30
2019-05-22T16:33:49.498Z,8.80
2019-05-22T16:36:23.960Z,8.57
2019-05-22T16:38:55.398Z,9.90
2019-05-22T16:41:25.923Z,9.97
2019-05-22T16:43:56.761Z,10.70
2019-05-22T16:46:27.283Z,10.67
2019-05-22T16:48:57.700Z,10.40
2019-05-22T16:51:30.236Z,11.27
2019-05-22T16:54:07.340Z,11.17
2019-05-22T16:56:38.330Z,9.77
2019-05-22T16:59:11.189Z,10.33
2019-05-22T17:01:57.602Z,8.67
2019-05-22T17:04:13.588Z,8.80
2019-05-22T17:06:45.558Z,7.70
2019-05-22T17:09:16.673Z,8.20
2019-05-22T17:11:47.366Z,7.70
2019-05-22T17:14:19.014Z,7.70
2019-05-22T17:16:50.068Z,8.20
2019-05-22T17:19:27.231Z,7.40
2019-05-22T17:21:53.690Z,6.80
2019-05-22T17:24:24.612Z,6.57
2019-05-22T17:26:55.150Z,8.30
2019-05-22T17:29:26.516Z,7.60
2019-05-22T17:31:56.874Z,7.67
2019-05-22T17:34:35.800Z,6.77
2019-05-22T17:37:12.622Z,6.97
2019-05-22T17:39:46.717Z,7.40
2019-05-22T17:42:19.437Z,6.87
2019-05-22T17:44:53.029Z,6.63
2019-05-22T17:47:26.497Z,7.13
2019-05-22T17:49:56.975Z,6.70
2019-05-22T17:52:29.674Z,6.07
2019-05-22T17:55:01.010Z,6.10
2019-05-22T17:57:32.453Z,5.47
2019-05-22T18:00:03.943Z,5.63
2019-05-22T18:02:36.510Z,5.00
2019-05-22T18:05:09.842Z,5.60
2019-05-22T18:07:40.608Z,5.40
2019-05-22T18:10:11.703Z,4.70
2019-05-22T18:12:42.210Z,4.60
2019-05-22T18:15:14.717Z,4.47
2019-05-22T18:17:45.233Z,4.43
2019-05-22T18:20:15.965Z,4.40
2019-05-22T18:22:46.082Z,3.87
2019-05-22T18:25:16.225Z,4.27
2019-05-22T18:27:46.103Z,3.53
2019-05-22T18:30:17.623Z,3.20
2019-05-22T18:32:47.159Z,3.70
2019-05-22T18:35:17.037Z,3.47
2019-05-22T18:37:46.854Z,3.80
2019-05-22T18:40:19.032Z,3.90
2019-05-22T18:42:49.624Z,3.57
2019-05-22T18:45:21.476Z,3.63
2019-05-22T18:47:51.537Z,3.20
2019-05-22T18:50:21.709Z,3.23
2019-05-22T18:52:51.910Z,3.03
2019-05-22T18:55:21.572Z,3.20
2019-05-22T18:57:51.311Z,2.90
2019-05-22T19:00:24.796Z,2.93
2019-05-22T19:02:54.714Z,3.47
2019-05-22T19:05:27.212Z,3.60
2019-05-22T19:07:57.302Z,2.93
2019-05-22T19:10:27.087Z,2.87
2019-05-22T19:12:59.420Z,3.07
2019-05-22T19:15:29.549Z,3.30
2019-05-22T19:17:59.728Z,3.10
2019-05-22T19:20:31.457Z,3.53
2019-05-22T19:23:02.075Z,2.93
2019-05-22T19:25:33.444Z,3.10
2019-05-22T19:28:03.384Z,3.23
2019-05-22T19:30:33.500Z,3.23
2019-05-22T19:33:03.127Z,3.20
2019-05-22T19:35:33.557Z,2.90
2019-05-22T19:38:04.698Z,2.70
2019-05-22T19:40:35.041Z,2.67
2019-05-22T19:43:05.578Z,2.63
2019-05-22T19:45:36.144Z,2.57
2019-05-22T19:48:07.565Z,2.63
2019-05-22T19:50:38.056Z,2.80
2019-05-22T19:53:18.669Z,3.03
2019-05-22T19:55:42.145Z,2.77
2019-05-22T19:58:12.484Z,3.20
2019-05-22T20:00:42.219Z,2.80
2019-05-22T20:03:12.135Z,2.63
2019-05-22T20:05:42.187Z,2.70
2019-05-22T20:08:12.400Z,3.07
2019-05-22T20:10:43.407Z,2.60
2019-05-22T20:13:13.227Z,2.40
2019-05-22T20:15:44.247Z,2.30
2019-05-22T20:18:14.245Z,2.37
2019-05-22T20:20:44.447Z,2.53
2019-05-22T20:23:15.583Z,2.30
2019-05-22T20:25:45.373Z,1.97
2019-05-22T20:28:16.304Z,1.77
2019-05-22T20:30:46.653Z,1.90
2019-05-22T20:33:16.506Z,1.97
2019-05-22T20:35:46.667Z,2.30
2019-05-22T20:38:17.155Z,2.33
2019-05-22T20:40:47.301Z,1.80
2019-05-22T20:43:17.043Z,2.23
2019-05-22T20:45:46.773Z,2.00
2019-05-22T20:48:26.058Z,1.90
2019-05-22T20:50:57.532Z,2.17
2019-05-22T20:53:27.407Z,2.00
2019-05-22T20:55:58.474Z,2.00
2019-05-22T20:58:30.725Z,1.63
2019-05-22T21:01:00.724Z,2.30
2019-05-22T21:03:33.185Z,2.27
2019-05-22T21:06:07.072Z,1.93
2019-05-22T21:08:38.054Z,1.83
2019-05-22T21:11:09.777Z,2.10
2019-05-22T21:13:40.140Z,1.53
2019-05-22T21:16:11.053Z,2.13
2019-05-22T21:19:00.975Z,1.60
2019-05-22T21:21:31.184Z,1.50
2019-05-22T21:24:10.031Z,1.80
2019-05-22T21:26:34.333Z,1.80
2019-05-22T21:29:04.457Z,2.27
2019-05-22T21:31:35.241Z,1.73
2019-05-22T21:34:05.673Z,1.83
2019-05-22T21:36:36.141Z,1.77
2019-05-22T21:39:09.928Z,2.20
2019-05-22T21:41:40.272Z,1.70
2019-05-22T21:44:10.416Z,2.00
2019-05-22T21:46:41.950Z,2.20
2019-05-22T21:49:12.380Z,1.73
2019-05-22T21:51:42.126Z,1.73
2019-05-22T21:54:12.322Z,1.70
2019-05-22T21:56:43.430Z,2.53
2019-05-22T21:59:14.223Z,1.70
2019-05-22T22:02:10.160Z,1.80
2019-05-22T22:04:39.938Z,1.97
2019-05-22T22:07:10.777Z,2.20
2019-05-22T22:09:42.629Z,1.80
2019-05-22T22:12:15.149Z,1.80
2019-05-22T22:14:45.564Z,1.87
2019-05-22T22:17:16.708Z,2.13
2019-05-22T22:19:47.074Z,1.73
2019-05-22T22:22:23.040Z,1.87
2019-05-22T22:24:53.269Z,2.20
2019-05-22T22:27:22.893Z,1.80
2019-05-22T22:29:53.947Z,1.90
2019-05-22T22:32:25.627Z,1.87
2019-05-22T22:34:55.459Z,1.83
2019-05-22T22:37:26.600Z,1.20
2019-05-22T22:39:59.387Z,1.50
2019-05-22T22:42:31.718Z,2.10
2019-05-22T22:45:05.487Z,1.67
2019-05-22T22:47:37.906Z,1.50
2019-05-22T22:50:10.005Z,1.90
2019-05-22T22:52:39.915Z,1.60
2019-05-22T22:55:13.443Z,1.60
2019-05-22T22:57:42.965Z,1.50
2019-05-22T23:00:17.469Z,1.87
2019-05-22T23:02:49.302Z,1.90
2019-05-22T23:05:20.050Z,2.03
2019-05-22T23:07:49.615Z,1.43
2019-05-22T23:10:21.904Z,2.00
2019-05-22T23:12:54.442Z,1.43
2019-05-22T23:15:26.989Z,1.47
2019-05-22T23:17:56.725Z,2.17
2019-05-22T23:20:24.361Z,1.73
2019-05-22T23:22:52.629Z,1.53
2019-05-22T23:25:23.786Z,2.00
2019-05-22T23:27:53.708Z,1.70
2019-05-22T23:30:23.952Z,2.07
2019-05-22T23:32:54.663Z,1.90
2019-05-22T23:35:24.799Z,1.83
2019-05-22T23:37:54.365Z,1.30
2019-05-22T23:40:29.226Z,2.20
2019-05-22T23:43:01.964Z,1.50
2019-05-22T23:45:32.265Z,2.33
2019-05-22T23:48:14.439Z,1.53
2019-05-22T23:50:45.781Z,1.77
2019-05-22T23:53:18.507Z,1.63
2019-05-22T23:55:48.991Z,1.90
2019-05-22T23:58:20.174Z,1.50
